createdAt,value
2023-01-01T00:01:41.669Z,3.00
2023-01-01T00:04:44.513Z,2.50
2023-01-01T00:07:47.335Z,1.90
2023-01-01T00:10:50.200Z,1.50
2023-01-01T00:13:53.045Z,2.70
2023-01-01T00:16:56.337Z,2.40
2023-01-01T00:19:59.302Z,2.10
2023-01-01T00:23:02.159Z,2.10
2023-01-01T00:26:15.712Z,2.30
2023-01-01T00:29:18.518Z,1.40
2023-01-01T00:32:23.018Z,1.70
2023-01-01T00:35:27.215Z,2.20
2023-01-01T00:38:30.044Z,1.40
2023-01-01T00:41:32.953Z,1.70
2023-01-01T00:44:35.951Z,1.50
2023-01-01T00:47:38.828Z,1.80
2023-01-01T00:50:41.817Z,3.50
2023-01-01T00:53:44.661Z,3.30
2023-01-01T00:56:47.524Z,3.90
2023-01-01T00:59:50.443Z,3.50
2023-01-01T01:02:53.268Z,2.80
2023-01-01T01:06:02.339Z,3.30
2023-01-01T01:09:07.020Z,3.20
2023-01-01T01:12:17.633Z,3.50
2023-01-01T01:15:21.858Z,4.00
2023-01-01T01:18:25.616Z,3.40
2023-01-01T01:21:30.938Z,3.50
2023-01-01T01:24:33.792Z,3.50
2023-01-01T01:27:36.639Z,3.10
2023-01-01T01:30:40.841Z,2.50
2023-01-01T01:33:44.390Z,2.20
2023-01-01T01:36:47.898Z,3.10
2023-01-01T01:39:53.948Z,3.00
2023-01-01T01:42:57.240Z,3.40
2023-01-01T01:46:22.002Z,3.80
2023-01-01T01:49:30.729Z,2.60
2023-01-01T01:52:36.505Z,1.20
2023-01-01T01:55:52.383Z,1.80
2023-01-01T01:58:55.338Z,2.80
2023-01-01T02:01:59.035Z,1.70
2023-01-01T02:05:03.765Z,1.70
2023-01-01T02:08:08.150Z,1.60
2023-01-01T02:11:11.013Z,1.50
2023-01-01T02:14:14.097Z,1.50
2023-01-01T02:17:27.935Z,1.30
2023-01-01T02:20:55.300Z,1.30
2023-01-01T02:24:12.259Z,1.40
2023-01-01T02:27:47.640Z,1.60
2023-01-01T02:30:53.336Z,1.50
2023-01-01T02:37:06.904Z,1.60
2023-01-01T02:40:10.173Z,1.40
2023-01-01T02:43:13.229Z,1.10
2023-01-01T02:49:17.720Z,1.10
2023-01-01T02:52:58.771Z,1.10
2023-01-01T02:56:29.542Z,1.20
2023-01-01T03:00:16.553Z,1.00
2023-01-01T03:03:28.421Z,1.00
2023-01-01T03:06:54.493Z,1.40
2023-01-01T03:10:18.137Z,1.10
2023-01-01T03:16:58.929Z,1.70
2023-01-01T03:20:07.951Z,1.30
2023-01-01T03:23:19.215Z,1.20
2023-01-01T03:26:25.024Z,1.20
2023-01-01T03:32:58.030Z,1.70
2023-01-01T03:36:00.781Z,1.40
2023-01-01T03:39:17.139Z,1.40
2023-01-01T03:42:36.898Z,1.40
2023-01-01T03:45:43.673Z,1.50
2023-01-01T03:49:03.873Z,1.10
2023-01-01T03:52:19.537Z,1.00
2023-01-01T03:55:27.362Z,1.10
2023-01-01T03:58:53.130Z,1.10
2023-01-01T04:01:58.855Z,1.20
2023-01-01T04:08:07.174Z,1.10
2023-01-01T04:11:40.537Z,1.20
2023-01-01T04:14:43.388Z,0.90
2023-01-01T04:17:46.739Z,1.20
2023-01-01T04:20:49.534Z,1.20
2023-01-01T04:23:52.372Z,2.40
2023-01-01T04:26:55.761Z,2.30
2023-01-01T04:29:58.599Z,2.50
2023-01-01T04:33:01.431Z,2.00
2023-01-01T04:36:09.222Z,1.90
2023-01-01T04:39:12.151Z,1.80
2023-01-01T04:42:14.966Z,2.50
2023-01-01T04:45:18.064Z,2.50
2023-01-01T04:48:20.846Z,2.30
2023-01-01T04:51:23.642Z,1.90
2023-01-01T04:54:27.093Z,1.70
2023-01-01T04:57:31.024Z,1.90
2023-01-01T05:00:33.930Z,2.20
2023-01-01T05:03:37.448Z,3.10
2023-01-01T05:06:40.439Z,2.70
2023-01-01T05:09:43.323Z,3.80
2023-01-01T05:12:46.201Z,3.90
2023-01-01T05:15:49.014Z,3.30
2023-01-01T05:18:52.024Z,3.20
2023-01-01T05:21:55.868Z,3.10
2023-01-01T05:24:58.706Z,3.60
2023-01-01T05:28:01.556Z,3.80
2023-01-01T05:31:34.927Z,3.50
2023-01-01T05:37:39.411Z,2.50
2023-01-01T05:40:42.256Z,2.60
2023-01-01T05:43:45.590Z,2.50
2023-01-01T05:46:48.376Z,2.70
2023-01-01T05:49:51.489Z,3.10
2023-01-01T05:52:54.345Z,3.10
2023-01-01T05:55:58.035Z,3.10
2023-01-01T05:59:00.845Z,2.90
2023-01-01T06:02:03.856Z,2.30
2023-01-01T06:05:06.892Z,2.70
2023-01-01T06:08:09.836Z,3.10
2023-01-01T06:11:13.015Z,3.70
2023-01-01T06:14:15.793Z,3.20
2023-01-01T06:17:18.653Z,2.50
2023-01-01T06:20:21.491Z,1.90
2023-01-01T06:23:24.289Z,2.00
2023-01-01T06:26:30.464Z,2.00
2023-01-01T06:29:33.280Z,2.30
2023-01-01T06:32:36.161Z,2.00
2023-01-01T06:35:39.005Z,1.80
2023-01-01T06:38:44.410Z,2.10
2023-01-01T06:41:47.351Z,2.10
2023-01-01T06:44:50.170Z,2.30
2023-01-01T06:47:52.974Z,2.00
2023-01-01T06:50:55.826Z,2.50
2023-01-01T06:54:03.963Z,2.30
2023-01-01T06:57:06.913Z,2.80
2023-01-01T07:00:10.277Z,1.80
2023-01-01T07:03:13.158Z,2.40
2023-01-01T07:06:16.035Z,2.30
2023-01-01T07:09:18.940Z,2.30
2023-01-01T07:12:21.763Z,1.90
2023-01-01T07:15:24.532Z,2.40
2023-01-01T07:18:27.579Z,2.00
2023-01-01T07:21:36.746Z,1.70
2023-01-01T07:24:39.901Z,2.40
2023-01-01T07:27:42.724Z,2.50
2023-01-01T07:30:45.793Z,2.50
2023-01-01T07:33:51.583Z,2.90
2023-01-01T07:36:55.421Z,2.20
2023-01-01T07:39:58.210Z,3.30
2023-01-01T07:43:01.084Z,2.70
2023-01-01T07:46:04.489Z,2.50
2023-01-01T07:49:07.412Z,2.90
2023-01-01T07:52:10.205Z,1.80
2023-01-01T07:55:18.377Z,3.10
2023-01-01T07:58:23.054Z,2.90
2023-01-01T08:01:25.933Z,2.40
2023-01-01T08:04:28.791Z,2.50
2023-01-01T08:07:31.852Z,2.70
2023-01-01T08:10:34.616Z,2.40
2023-01-01T08:13:37.498Z,2.80
2023-01-01T08:16:40.336Z,2.70
2023-01-01T08:19:44.901Z,2.80
2023-01-01T08:22:47.679Z,2.90
2023-01-01T08:25:50.527Z,2.20
2023-01-01T08:28:57.178Z,3.30
2023-01-01T08:32:00.637Z,2.60
2023-01-01T08:35:04.130Z,3.60
2023-01-01T08:38:06.945Z,3.50
2023-01-01T08:41:10.079Z,2.30
2023-01-01T08:44:12.907Z,5.00
2023-01-01T08:47:20.480Z,5.10
2023-01-01T08:50:23.346Z,3.70
2023-01-01T08:53:30.373Z,2.90
2023-01-01T08:56:33.278Z,3.20
2023-01-01T08:59:36.232Z,2.70
2023-01-01T09:02:39.455Z,2.80
2023-01-01T09:05:45.887Z,2.80
2023-01-01T09:08:48.768Z,3.90
2023-01-01T09:11:57.267Z,2.50
2023-01-01T09:15:00.098Z,3.20
2023-01-01T09:18:03.107Z,7.00
2023-01-01T09:21:06.349Z,20.00
2023-01-01T09:24:09.160Z,27.60
2023-01-01T09:27:12.004Z,7.20
2023-01-01T09:30:15.319Z,14.60
2023-01-01T09:33:18.113Z,13.00
2023-01-01T09:36:20.898Z,9.90
2023-01-01T09:39:23.803Z,9.00
2023-01-01T09:42:40.257Z,7.00
2023-01-01T09:45:59.786Z,14.30
2023-01-01T09:49:17.695Z,9.00
2023-01-01T09:52:21.075Z,6.90
2023-01-01T09:55:53.846Z,6.50
2023-01-01T09:58:59.444Z,15.50
2023-01-01T10:02:28.718Z,5.20
2023-01-01T10:05:49.261Z,10.70
2023-01-01T10:09:17.623Z,11.10
2023-01-01T10:12:41.177Z,6.30
2023-01-01T10:19:02.869Z,4.40
2023-01-01T10:22:15.734Z,4.50
2023-01-01T10:25:22.739Z,4.50
2023-01-01T10:28:54.471Z,3.80
2023-01-01T10:31:58.682Z,3.50
2023-01-01T10:35:03.835Z,3.30
2023-01-01T10:38:06.799Z,3.30
2023-01-01T10:41:19.056Z,2.80
2023-01-01T10:44:29.437Z,2.90
2023-01-01T10:47:32.313Z,3.10
2023-01-01T10:50:51.037Z,3.30
2023-01-01T10:53:55.627Z,2.70
2023-01-01T10:56:58.551Z,3.70
2023-01-01T11:00:27.437Z,3.20
2023-01-01T11:03:30.411Z,3.90
2023-01-01T11:06:36.262Z,4.10
2023-01-01T11:09:39.958Z,3.10
2023-01-01T11:16:11.670Z,2.90
2023-01-01T11:19:29.853Z,3.00
2023-01-01T11:22:37.276Z,2.70
2023-01-01T11:25:40.177Z,2.90
2023-01-01T11:28:45.083Z,3.30
2023-01-01T11:31:48.944Z,2.80
2023-01-01T11:35:02.492Z,2.20
2023-01-01T11:40:56.991Z,2.10
2023-01-01T11:44:00.493Z,1.70
2023-01-01T11:47:24.629Z,1.80
2023-01-01T11:50:36.373Z,1.60
2023-01-01T11:53:42.104Z,1.70
2023-01-01T11:56:46.895Z,1.60
2023-01-01T11:59:56.186Z,1.60
2023-01-01T12:03:28.080Z,2.80
2023-01-01T12:10:03.602Z,2.10
2023-01-01T12:13:15.467Z,2.00
2023-01-01T12:16:44.884Z,2.40
2023-01-01T12:20:05.459Z,1.60
2023-01-01T12:23:11.416Z,2.00
2023-01-01T12:26:22.694Z,1.70
2023-01-01T12:30:10.416Z,2.00
2023-01-01T12:33:16.045Z,2.50
2023-01-01T12:36:27.097Z,2.00
2023-01-01T12:40:15.048Z,1.70
2023-01-01T12:43:39.609Z,2.50
2023-01-01T12:47:04.482Z,2.10
2023-01-01T12:50:29.461Z,2.40
2023-01-01T12:53:49.871Z,2.20
2023-01-01T12:57:01.524Z,2.20
2023-01-01T13:00:13.642Z,2.20
2023-01-01T13:03:24.450Z,2.20
2023-01-01T13:06:51.693Z,3.30
2023-01-01T13:09:56.065Z,4.40
2023-01-01T13:12:59.168Z,2.10
2023-01-01T13:16:03.519Z,2.40
2023-01-01T13:19:06.917Z,3.80
2023-01-01T13:22:39.053Z,3.70
2023-01-01T13:25:42.076Z,4.30
2023-01-01T13:29:09.784Z,3.80
2023-01-01T13:32:14.088Z,4.50
2023-01-01T13:35:17.602Z,3.80
2023-01-01T13:38:50.408Z,3.90
2023-01-01T13:41:53.341Z,3.70
2023-01-01T13:44:56.404Z,3.60
2023-01-01T13:48:28.627Z,3.70
2023-01-01T13:58:33.648Z,3.70
2023-01-01T14:12:22.607Z,18.30
2023-01-01T14:15:33.577Z,15.10
2023-01-01T14:19:43.365Z,10.50
2023-01-01T14:23:32.044Z,7.00
2023-01-01T14:26:49.153Z,6.60
2023-01-01T14:29:52.588Z,14.80
2023-01-01T14:33:02.924Z,7.60
2023-01-01T14:36:27.340Z,5.80
2023-01-01T14:54:06.950Z,9.90
2023-01-01T14:57:40.411Z,8.60
2023-01-01T15:00:43.401Z,9.60
2023-01-01T15:03:56.249Z,6.40
2023-01-01T15:07:00.918Z,10.10
2023-01-01T15:10:04.210Z,3.70
2023-01-01T15:13:08.241Z,4.10
2023-01-01T15:16:19.899Z,5.80
2023-01-01T15:19:23.526Z,6.60
2023-01-01T15:22:31.356Z,7.40
2023-01-01T15:25:36.483Z,6.10
2023-01-01T15:28:42.567Z,7.60
2023-01-01T15:31:49.934Z,4.30
2023-01-01T15:34:57.642Z,5.50
2023-01-01T15:38:16.646Z,5.80
2023-01-01T15:41:43.306Z,6.40
2023-01-01T15:44:46.212Z,6.30
2023-01-01T15:47:55.363Z,5.00
2023-01-01T15:51:21.684Z,6.30
2023-01-01T15:54:25.530Z,6.50
2023-01-01T15:57:28.489Z,6.60
2023-01-01T16:00:38.704Z,6.30
2023-01-01T16:05:02.901Z,8.00
2023-01-01T16:08:06.283Z,11.10
2023-01-01T16:11:14.845Z,9.70
2023-01-01T16:14:18.351Z,7.60
2023-01-01T16:17:26.035Z,6.50
2023-01-01T16:20:35.043Z,5.40
2023-01-01T16:23:41.455Z,5.80
2023-01-01T16:26:44.883Z,6.30
2023-01-01T16:33:51.928Z,5.90
2023-01-01T16:36:55.333Z,5.70
2023-01-01T16:40:04.008Z,5.70
2023-01-01T16:43:12.513Z,6.20
2023-01-01T16:46:15.742Z,5.00
2023-01-01T16:49:18.639Z,5.60
2023-01-01T16:52:21.677Z,7.20
2023-01-01T16:55:24.622Z,7.10
2023-01-01T17:01:50.725Z,4.50
2023-01-01T17:04:53.719Z,5.00
2023-01-01T17:07:56.575Z,5.40
2023-01-01T17:11:10.217Z,5.40
2023-01-01T17:14:13.244Z,5.30
2023-01-01T17:17:16.187Z,5.50
2023-01-01T17:20:19.119Z,6.00
2023-01-01T17:23:22.031Z,5.80
2023-01-01T17:26:26.505Z,5.50
2023-01-01T17:29:29.392Z,5.00
2023-01-01T17:32:34.672Z,5.10
2023-01-01T17:35:38.302Z,6.10
2023-01-01T17:38:41.474Z,4.70
2023-01-01T17:41:45.065Z,5.00
2023-01-01T17:44:47.989Z,4.80
2023-01-01T17:47:50.922Z,6.70
2023-01-01T17:50:53.799Z,6.40
2023-01-01T17:53:57.004Z,5.00
2023-01-01T17:57:04.000Z,4.70
2023-01-01T18:00:10.207Z,4.80
2023-01-01T18:03:14.448Z,4.90
2023-01-01T18:06:17.929Z,5.20
2023-01-01T18:09:22.670Z,5.30
2023-01-01T18:12:25.599Z,5.50
2023-01-01T18:15:28.868Z,2.40
2023-01-01T18:18:32.505Z,4.90
2023-01-01T18:21:35.505Z,4.70
2023-01-01T18:24:38.557Z,4.80
2023-01-01T18:27:41.393Z,5.40
2023-01-01T18:30:44.383Z,5.30
2023-01-01T18:33:47.887Z,4.40
2023-01-01T18:36:50.960Z,5.10
2023-01-01T18:39:54.204Z,4.70
2023-01-01T18:43:16.340Z,5.70
2023-01-01T18:46:23.754Z,3.90
2023-01-01T18:49:26.916Z,4.50
2023-01-01T18:52:33.632Z,3.90
2023-01-01T18:55:36.602Z,5.60
2023-01-01T18:58:43.515Z,5.20
2023-01-01T19:01:46.525Z,6.10
2023-01-01T19:04:49.920Z,4.80
2023-01-01T19:08:04.919Z,5.10
2023-01-01T19:11:15.958Z,5.90
2023-01-01T19:14:21.345Z,7.50
2023-01-01T19:17:24.440Z,6.20
2023-01-01T19:20:27.223Z,6.70
2023-01-01T19:23:30.764Z,6.90
2023-01-01T19:26:41.619Z,5.50
2023-01-01T19:29:46.748Z,5.20
2023-01-01T19:32:49.622Z,4.30
2023-01-01T19:35:52.454Z,4.20
2023-01-01T19:38:55.438Z,4.50
2023-01-01T19:42:04.087Z,4.00
2023-01-01T19:45:08.718Z,4.80
2023-01-01T19:48:11.702Z,3.50
2023-01-01T19:51:14.649Z,5.90
2023-01-01T19:54:17.862Z,3.40
2023-01-01T19:57:21.537Z,4.20
2023-01-01T20:00:27.857Z,4.10
2023-01-01T20:06:53.754Z,3.50
2023-01-01T20:09:56.662Z,3.10
2023-01-01T20:12:59.628Z,3.70
2023-01-01T20:16:03.395Z,4.60
2023-01-01T20:19:06.437Z,4.50
2023-01-01T20:22:11.829Z,4.90
2023-01-01T20:25:15.392Z,4.30
2023-01-01T20:28:36.639Z,5.30
2023-01-01T20:31:39.925Z,4.30
2023-01-01T20:34:46.364Z,5.70
2023-01-01T20:37:51.378Z,6.70
2023-01-01T20:40:56.044Z,5.80
2023-01-01T20:44:02.733Z,4.30
2023-01-01T20:47:05.572Z,6.10
2023-01-01T20:50:08.853Z,4.50
2023-01-01T20:53:11.775Z,4.50
2023-01-01T20:56:14.879Z,4.30
2023-01-01T20:59:35.415Z,4.00
2023-01-01T21:02:39.274Z,4.30
2023-01-01T21:05:42.345Z,3.90
2023-01-01T21:08:47.092Z,4.10
2023-01-01T21:11:49.893Z,4.50
2023-01-01T21:14:56.248Z,4.90
2023-01-01T21:18:00.442Z,4.50
2023-01-01T21:21:09.459Z,4.00
2023-01-01T21:24:23.672Z,3.20
2023-01-01T21:27:33.901Z,4.60
2023-01-01T21:30:40.281Z,4.00
2023-01-01T21:33:44.940Z,4.80
2023-01-01T21:36:47.788Z,4.50
2023-01-01T21:39:50.584Z,4.20
2023-01-01T21:42:55.723Z,4.00
2023-01-01T21:46:08.084Z,3.60
2023-01-01T21:49:36.693Z,3.30
2023-01-01T21:52:42.676Z,3.10
2023-01-01T21:55:54.641Z,4.20
2023-01-01T21:59:27.759Z,3.20
2023-01-01T22:02:36.827Z,3.00
2023-01-01T22:05:42.667Z,4.40
2023-01-01T22:08:47.327Z,3.70
2023-01-01T22:11:53.631Z,5.50
2023-01-01T22:15:17.886Z,8.00
2023-01-01T22:18:31.178Z,6.70
2023-01-01T22:21:36.129Z,6.70
2023-01-01T22:24:38.962Z,7.60
2023-01-01T22:27:41.944Z,8.10
2023-01-01T22:30:44.766Z,6.50
2023-01-01T22:33:50.496Z,6.40
2023-01-01T22:36:53.950Z,4.80
2023-01-01T22:39:58.757Z,6.40
2023-01-01T22:43:05.918Z,6.20
2023-01-01T22:46:11.642Z,5.10
2023-01-01T22:49:22.427Z,5.40
2023-01-01T22:52:25.193Z,3.40
2023-01-01T22:55:28.064Z,3.80
2023-01-01T22:58:30.966Z,5.10
2023-01-01T23:01:33.838Z,3.90
2023-01-01T23:04:36.760Z,4.20
2023-01-01T23:07:42.247Z,3.60
2023-01-01T23:10:45.220Z,4.20
2023-01-01T23:14:08.934Z,3.20
2023-01-01T23:17:11.701Z,3.90
2023-01-01T23:20:14.579Z,4.20
2023-01-01T23:23:17.471Z,3.80
2023-01-01T23:26:20.715Z,3.80
2023-01-01T23:29:24.705Z,3.60
2023-01-01T23:32:29.022Z,4.00
2023-01-01T23:35:31.965Z,4.10
2023-01-01T23:38:35.451Z,3.70
2023-01-01T23:41:38.227Z,3.70
2023-01-01T23:44:41.725Z,3.20
2023-01-01T23:47:44.772Z,4.10
2023-01-01T23:50:48.186Z,3.40
2023-01-01T23:53:51.058Z,3.50
2023-01-01T23:56:54.662Z,4.20
2023-01-01T23:59:57.522Z,3.30
